Harned, Kentucky
Current Conditions -  °F | °C
As of 5:58 PM on Monday 20 Oct 2014 (Local Time) from KFTK Reporting Station
Scattered Clouds Scattered Clouds  
Wind Chill: 64°   Ceiling: Unl
Heat Index: 64°   Visibility: 10mi
Dew Point: 52°   Wind: 7mph
Humidity: 65%   Direction: 200°SSW
Pressure: 29.9"   Gusts: NA
Location:  37.75°N, 86.41°W
Report Text: KFTK 202258Z 20006KT 10SM SCT050 SCT065 18/11 A2990 RMK AO2A SLP127 T01760109
Loading
Personal Weather Stations






























Interactive Weather Map
Tropical Storm Tracking
New forecast layout! Learn more

10-Day Weather Forecast

Advertisements
Track Severe Weather on mobile